York, PA

03:55 EDT le 19 avril 2015 (GMT -0400)
Lancaster | | Change Station
CLOSE
Current Station
Aéroport
Location: Lancaster,
Altitude: 404 ft
Stations météo à proximité

Alt. 404 ft 40.12 °N, 76.29 °W | Updated 1 hour ago

Partiellement nuageux
Partiellement nuageux
54 ° F
Paraît 54 ° F
N
7
Vent Variable Vent de NNE

Aujourd'hui
Haut(e) -- | Bas -- ° F
--% Risque de précip.
Hier
Haut(e) -- | Bas -- ° F
Precip. -- pouce
6:23 AM 7:49 PM
Nouvelle lune, 0% visible
Pression 30.10 pouce
Visibilité 10.0 Miles terrestres
Nuages Ciel dégagé
Point de rosée 28 ° F
Humidité 37%
Précipitations 0.00 pouce
Profondeur de la couche neigeuse Non disponible.
UV 0 sur 12
Pollen 11.50 sur 12
Qualité de l'air Non disponible.
Flu Activity Sporadic
METAR KLNS 190653Z AUTO 03006KT 10SM CLR 12/M02 A3010 RMK AO2 SLP192 T01221022

More Conditions Fewer Conditions

Pression 30.10 pouce
Visibilité 10.0 Miles terrestres
Nuages Ciel dégagé
Point de rosée 28 ° F
Humidité 37%
Précipitations 0.00 pouce
Profondeur de la couche neigeuse Non disponible.
UV 0 sur 12
Pollen 11.50 sur 12
Qualité de l'air Non disponible.
Flu Activity Sporadic
METAR KLNS 190653Z AUTO 03006KT 10SM CLR 12/M02 A3010 RMK AO2 SLP192 T01221022

More Conditions Fewer Conditions

10-Day Weather Forecast

Almanac

Astronomie

Apr. 19, 2015 Lever Coucher
Temps réel
Crépuscule civil
Crépuscule nautique
Crépuscule astronomique
Lune
Durée de lumière visible
Longueur du jour
Tomorrow will be .
, % of the Moon is Illuminated

Extrêmes aujourd'hui

State Highs State Lows

Community

WunderPhotos

Upload Photos

1,814,723 Photos téléchargées !

WunderBlogs® & News

Nearby

Qualité de l'air

  Qualité de l'air Indice de la qualité de l'air Polluant
Not available.

Épaisseur de neige

Station Depth Altitude

Activité sismique

Ville Distance Mag. Time & Date
Minimum magnitude displayed is 2.5.

Températures des eaux côtières

Lieu Température

Stations

Stations météo à proximité

Emplacement de la station Température Refroidissement éolien Point de rosée Humidité Vent Precip. Alt. Mise à jour Type